Latest Coastal Weather Observations for Wadeye (Port Keats)

IDD60701

Issued at 10:01 am CST Thursday 11 February 2016 (issued every 10 minutes, with the page automatically refreshed every 10 minutes)

About coastal observations | Map of coastal stations | Coastal observations for NT | Marine services | Other Formats
Station Details ID: 014948 Name: PORT KEATS AIRPORT Lat: -14.25 Lon: 129.53 Height: 28.0 m
Data from the previous 72 hours. | See also: Recent months at Wadeye (Port Keats)
Date/Time
CST
Temp

°C
Wind Pressure Rain
since 9am
mm
Weather Cloud Vis
km
Sea
Height
m
Swell
Dir
 
Speed
knots
Gust
knots
hPa Trend Height
m
Period
s
Dir
11/10:00am 31.7 NNW 6 9 1007.4 - 0.0 - - - - - - -
11/09:30am 31.8 N 7 9 1007.6 - 0.0 - - - - - - -
11/09:00am 30.7 NNW 5 7 1007.5 - 0.0 - - - - - - -
11/08:30am 29.2 NE 3 4 1007.6 - 0.0 - - - - - - -
11/08:00am 28.2 ENE 5 6 1007.4 - 0.0 - - - - - - -
11/07:30am 27.2 E 3 5 1007.2 - 0.0 - - - - - - -
11/07:00am 26.2 ESE 4 5 1006.9 - 0.0 - - - - - - -
11/06:30am 26.1 E 4 6 1006.6 - 0.0 - - - - - - -
11/06:00am 26.1 E 3 4 1006.3 - 0.0 - - - - - - -
11/05:30am 26.3 E 4 6 1006.3 - 0.0 - - - - - - -
11/05:00am 26.6 E 5 6 1006.2 - 0.0 - - - - - - -
11/04:30am 27.1 E 5 7 1006.1 - 0.0 - - - - - - -
11/04:00am 28.3 E 4 7 1005.7 - 0.0 - - - - - - -
11/03:30am 28.9 CALM 0 3 1005.3 - 0.0 - - - - - - -
11/03:00am 29.2 NNE 3 5 1005.4 - 0.0 - - - - - - -
11/02:30am 29.2 NE 5 6 1005.1 - 0.0 - - - - - - -
11/02:00am 29.2 NNE 5 8 1005.2 - 0.0 - - - - - - -
11/01:30am 29.3 N 5 6 1005.5 - 0.0 - - - - - - -
11/01:00am 29.3 N 5 6 1005.9 - 0.0 - - - - - - -
11/12:30am 29.6 N 5 7 1006.3 - 0.0 - - - - - - -
11/12:00am 29.5 NW 5 8 1006.9 - 0.0 - - - - - - -
 
Date/Time
CST
Temp

°C
Wind Pressure Rain
since 9am
mm
Weather Cloud Vis
km
Sea
Height
m
Swell
Dir
 
Speed
knots
Gust
knots
hPa Trend Height
m
Period
s
Dir
10/11:30pm 29.5 WNW 6 9 1007.3 - 0.0 - - - - - - -
10/11:00pm 29.3 WNW 5 6 1007.1 - 0.0 - - - - - - -
10/10:30pm 29.4 WNW 5 7 1006.7 - 0.0 - - - - - - -
10/10:00pm 29.8 N 5 6 1006.8 - 0.0 - - - - - - -
10/09:30pm 30.3 N 8 10 1006.6 - 0.0 - - - - - - -
10/09:00pm 30.4 N 6 8 1006.7 - 0.0 - - - - - - -
10/08:30pm 30.1 NNE 5 7 1006.1 - 0.0 - - - - - - -
10/08:00pm 30.3 N 5 6 1005.6 - 0.0 - - - - - - -
10/07:30pm 30.6 NNW 7 10 1004.9 - 0.0 - - - - - - -
10/07:00pm 31.3 NNW 8 12 1004.7 - 0.0 - - - - - - -
10/06:30pm 31.8 NW 8 13 1004.1 - 0.0 - - - - - - -
10/06:00pm 32.3 NW 8 12 1003.6 - 0.0 - - - - - - -
10/05:30pm 32.9 NW 8 12 1003.7 - 0.0 - - - - - - -
10/05:00pm 33.2 NW 9 14 1003.5 - 0.0 - - - - - - -
10/04:30pm 33.5 NW 8 12 1003.5 - 0.0 - - - - - - -
10/04:00pm 33.8 NW 9 14 1003.4 - 0.0 - - - - - - -
10/03:30pm 34.1 WNW 9 13 1003.7 - 0.0 - - - - - - -
10/03:00pm 34.9 W 7 13 1004.3 - 0.0 - - - - - - -
10/02:30pm 36.0 W 7 12 1004.8 - 0.0 - - - - - - -
10/02:00pm 35.4 W 7 11 1005.1 - 0.0 - - - - - - -
10/01:30pm 35.2 WNW 7 12 1005.5 - 0.0 - - - - - - -
10/01:00pm 35.4 W 6 9 1005.8 - 0.0 - - - - - - -
10/12:30pm 35.0 SSW 6 11 1006.2 - 0.0 - - - - - - -
10/12:00pm 34.4 W 7 13 1006.5 - 0.0 - - - - - - -
10/11:30am 34.1 WSW 5 7 1006.7 - 0.0 - - - - - - -
10/11:00am 33.3 WSW 4 7 1007.0 - 0.0 - - - - - - -
10/10:30am 32.7 SW 5 8 1007.3 - 0.0 - - - - - - -
10/10:00am 32.3 W 5 9 1007.6 - 0.0 - - - - - - -
10/09:30am 31.8 W 6 8 1007.7 - 0.0 - - - - - - -
10/09:00am 31.2 W 5 7 1007.6 - 0.2 - - - - - - -
10/08:30am 30.3 W 1 4 1007.3 - 0.2 - - - - - - -
10/08:00am 29.1 W 1 4 1007.1 - 0.2 - - - - - - -
10/07:30am 27.2 S 1 3 1006.8 - 0.2 - - - - - - -
10/07:00am 26.8 CALM 0 0 1006.6 - 0.2 - - - - - - -
10/06:30am 27.3 CALM 0 0 1006.3 - 0.2 - - - - - - -
10/06:00am 28.2 W 2 3 1006.1 - 0.2 - - - - - - -
10/05:30am 28.3 W 4 5 1005.9 - 0.2 - - - - - - -
10/05:00am 28.5 W 5 7 1005.8 - 0.2 - - - - - - -
10/04:30am 28.5 WNW 5 7 1005.8 - 0.2 - - - - - - -
10/04:00am 28.5 WNW 4 8 1005.9 - 0.2 - - - - - - -
10/03:30am 28.4 W 4 6 1006.1 - 0.2 - - - - - - -
10/03:00am 28.3 WNW 4 6 1006.2 - 0.2 - - - - - - -
10/02:30am 28.2 WNW 3 5 1006.5 - 0.2 - - - - - - -
10/02:00am 28.3 NW 4 5 1006.7 - 0.2 - - - - - - -
10/01:30am 27.5 W 3 5 1007.0 - 0.2 - - - - - - -
10/01:00am 27.8 WNW 3 5 1007.4 - 0.2 - - - - - - -
10/12:30am 28.4 NW 3 4 1007.6 - 0.2 - - - - - - -
10/12:00am 28.7 NNW 4 5 1007.7 - 0.2 - - - - - - -
 
Date/Time
CST
Temp

°C
Wind Pressure Rain
since 9am
mm
Weather Cloud Vis
km
Sea
Height
m
Swell
Dir
 
Speed
knots
Gust
knots
hPa Trend Height
m
Period
s
Dir
09/11:30pm 28.9 NNW 5 6 1007.8 - 0.2 - - - - - - -
09/11:00pm 29.0 NNW 5 6 1007.8 - 0.2 - - - - - - -
09/10:30pm 28.6 NNW 4 6 1007.8 - 0.2 - - - - - - -
09/10:00pm 27.8 NW 3 5 1007.7 - 0.2 - - - - - - -
09/09:30pm 27.7 NNW 3 4 1007.4 - 0.2 - - - - - - -
09/09:00pm 27.5 CALM 0 0 1007.0 - 0.2 - - - - - - -
09/08:30pm 28.0 W 2 3 1006.7 - 0.2 - - - - - - -
09/08:00pm 28.6 WNW 1 5 1006.7 - 0.2 - - - - - - -
09/07:30pm 28.9 WSW 4 5 1006.6 - 0.2 - - - - - - -
09/07:00pm 30.4 W 4 5 1006.5 - 0.2 - - - - - - -
09/06:30pm 30.3 NNW 5 7 1006.5 - 0.2 - - - - - - -
09/06:00pm 29.6 N 5 8 1006.6 - 0.2 - - - - - - -
09/05:30pm 29.6 NE 7 11 1006.7 - 0.2 - - - - - - -
09/05:00pm 28.9 ENE 14 22 1006.6 - 0.2 - - - - - - -
09/04:52pm 31.1 N 7 22 1006.5 - 0.2 - - - - - - -
09/04:30pm 33.9 WNW 5 8 1005.7 - 0.2 - - - - - - -
09/04:00pm 33.6 W 7 11 1005.6 - 0.2 - - - - - - -
09/03:30pm 33.6 W 6 10 1005.9 - 0.2 - - - - - - -
09/03:00pm 34.0 WNW 6 10 1006.2 - 0.2 - - - - - - -
09/02:30pm 33.5 NW 8 13 1006.2 - 0.2 - - - - - - -
09/02:00pm 33.2 W 8 13 1006.8 - 0.2 - - - - - - -
09/01:30pm 33.3 W 7 11 1007.2 - 0.2 - - - - - - -
09/01:00pm 33.1 W 6 11 1007.5 - 0.2 - - - - - - -
09/12:30pm 33.0 SW 5 9 1008.0 - 0.2 - - - - - - -
09/12:00pm 32.3 W 5 9 1008.4 - 0.2 - - - - - - -
09/11:30am 32.0 W 6 8 1008.8 - 0.2 - - - - - - -
09/11:00am 31.9 W 5 8 1009.0 - 0.2 - - - - - - -
09/10:30am 31.2 W 6 8 1009.2 - 0.2 - - - - - - -
09/10:00am 30.9 W 5 10 1009.3 - 0.0 - - - - - - -
09/09:30am 30.5 W 6 8 1009.3 - 0.0 - - - - - - -
09/09:00am 30.8 W 5 7 1009.0 - 20.4 - - - - - - -
09/08:30am 29.2 W 2 4 1008.8 - 20.4 - - - - - - -
09/08:00am 27.6 CALM 0 0 1008.4 - 20.4 - - - - - - -
09/07:30am 26.3 CALM 0 0 1008.2 - 20.4 - - - - - - -
09/07:00am 25.3 CALM 0 0 1007.9 - 20.4 - - - - - - -
09/06:30am 25.3 CALM 0 0 1007.6 - 20.4 - - - - - - -
09/06:00am 25.2 CALM 0 3 1007.2 - 20.4 - - - - - - -
09/05:30am 25.3 CALM 0 0 1007.1 - 20.4 - - - - - - -
09/05:00am 25.8 CALM 0 0 1006.8 - 20.4 - - - - - - -
09/04:30am 25.4 SW 3 4 1006.6 - 20.4 - - - - - - -
09/04:00am 25.4 SW 2 4 1006.7 - 20.4 - - - - - - -
09/03:30am 25.4 CALM 0 0 1006.8 - 20.4 - - - - - - -
09/03:00am 25.4 SSW 1 3 1006.8 - 20.4 - - - - - - -
09/02:30am 25.5 CALM 0 0 1006.9 - 20.4 - - - - - - -
09/02:00am 25.5 CALM 0 0 1007.1 - 20.4 - - - - - - -
09/01:30am 25.6 CALM 0 0 1007.4 - 20.4 - - - - - - -
09/01:00am 25.9 CALM 0 0 1007.7 - 20.4 - - - - - - -
09/12:30am 25.8 CALM 0 0 1008.0 - 20.4 - - - - - - -
09/12:00am 26.1 CALM 0 0 1008.2 - 20.4 - - - - - - -
 
Date/Time
CST
Temp

°C
Wind Pressure Rain
since 9am
mm
Weather Cloud Vis
km
Sea
Height
m
Swell
Dir
 
Speed
knots
Gust
knots
hPa Trend Height
m
Period
s
Dir
08/11:30pm 26.0 CALM 0 0 1008.3 - 20.4 - - - - - - -
08/11:00pm 26.2 CALM 0 0 1008.3 - 20.4 - - - - - - -
08/10:30pm 26.9 CALM 0 0 1008.1 - 20.4 - - - - - - -
08/10:00pm 26.7 CALM 0 0 1008.0 - 20.4 - - - - - - -
08/09:30pm 27.1 CALM 0 0 1007.7 - 20.4 - - - - - - -
08/09:00pm 27.5 CALM 0 0 1007.5 - 20.4 - - - - - - -
08/08:30pm 28.0 WNW 1 3 1007.3 - 20.4 - - - - - - -
08/08:00pm 28.9 NNW 4 5 1007.0 - 20.4 - - - - - - -
08/07:30pm 29.4 NW 3 5 1006.6 - 20.4 - - - - - - -
08/07:00pm 30.8 CALM 0 0 1006.3 - 20.4 - - - - - - -
08/06:30pm 31.3 CALM 0 3 1006.3 - 20.4 - - - - - - -
08/06:00pm 29.6 SSW 2 4 1006.0 - 20.4 - - - - - - -
08/05:30pm 28.7 SW 1 3 1005.9 - 20.4 - - - - - - -
08/05:00pm 28.2 W 2 3 1005.8 - 20.4 - - - - - - -
08/04:30pm 26.6 S 4 7 1006.3 - 20.4 - - - - - - -
08/04:00pm 25.0 W 3 5 1006.4 - 20.4 - - - - - - -
08/03:30pm 24.1 WNW 2 5 1007.2 - 20.2 - - - - - - -
08/03:00pm 25.5 ESE 10 17 1008.2 - 17.0 Rain - - - - - -
08/02:30pm 25.7 W 8 14 1007.1 - 11.6 - - - - - - -
08/02:00pm 27.7 N 9 13 1007.2 - 10.6 - - - - - - -
08/01:30pm 29.7 NNW 10 14 1007.3 - 0.4 - - - - - - -
08/01:00pm 33.0 WNW 6 9 1007.6 - 0.0 - - - - - - -
08/12:30pm 32.6 NW 7 10 1008.1 - 0.0 - - - - - - -
08/12:00pm 33.0 SSW 3 4 1008.4 - 0.0 - - - - - - -
08/11:30am 32.7 WSW 3 5 1008.6 - 0.0 - - - - - - -
08/11:00am 32.7 WSW 4 7 1008.8 - 0.0 - - - - - - -
08/10:30am 32.3 SW 4 7 1008.8 - 0.0 - - - - - - -

Other Formats:

Comma delimited format used in spreadsheet applications
http://www.bom.gov.au/fwo/IDD60701/IDD60701.95111.axf

JavaScript Object Notation format (JSON) in row-major order
http://www.bom.gov.au/fwo/IDD60701/IDD60701.95111.json